createdAt,value
2019-01-23T00:01:32.829Z,82.70
2019-01-23T00:04:07.182Z,82.80
2019-01-23T00:06:36.246Z,82.20
2019-01-23T00:16:59.257Z,82.10
2019-01-23T00:17:57.343Z,81.20
2019-01-23T00:20:26.239Z,80.80
2019-01-23T00:23:02.556Z,82.50
2019-01-23T00:25:34.665Z,82.30
2019-01-23T00:28:07.619Z,82.00
2019-01-23T00:37:12.311Z,82.40
2019-01-23T00:39:41.109Z,81.80
2019-01-23T00:42:09.899Z,82.40
2019-01-23T00:44:41.561Z,82.30
2019-01-23T00:47:10.536Z,82.50
2019-01-23T00:49:39.531Z,82.50
2019-01-23T00:52:08.331Z,82.30
2019-01-23T00:54:37.304Z,82.40
2019-01-23T00:57:06.152Z,82.40
2019-01-23T00:59:34.956Z,82.50
2019-01-23T01:02:04.397Z,82.60
2019-01-23T01:04:33.203Z,82.40
2019-01-23T01:07:02.104Z,82.50
2019-01-23T01:09:30.973Z,82.60
2019-01-23T01:11:59.889Z,82.50
2019-01-23T01:14:28.881Z,82.60
2019-01-23T01:16:57.872Z,82.50
2019-01-23T01:19:26.832Z,82.40
2019-01-23T01:21:55.716Z,82.30
2019-01-23T01:24:24.614Z,82.40
2019-01-23T01:26:53.494Z,82.30
2019-01-23T01:29:22.287Z,82.40
2019-01-23T01:31:51.068Z,82.40
2019-01-23T01:34:19.863Z,82.30
2019-01-23T01:36:50.414Z,82.30
2019-01-23T01:39:19.305Z,82.20
2019-01-23T01:41:48.130Z,82.30
2019-01-23T01:44:17.087Z,82.20
2019-01-23T01:46:45.873Z,82.30
2019-01-23T01:49:14.643Z,82.60
2019-01-23T01:51:43.511Z,82.60
2019-01-23T01:54:13.801Z,82.60
2019-01-23T01:56:42.695Z,82.70
2019-01-23T01:59:11.519Z,82.70
2019-01-23T02:01:40.511Z,82.50
2019-01-23T02:04:09.380Z,82.50
2019-01-23T02:06:38.389Z,82.60
2019-01-23T02:09:09.153Z,82.70
2019-01-23T02:11:38.023Z,82.70
2019-01-23T02:14:06.859Z,82.60
2019-01-23T02:16:35.652Z,82.60
2019-01-23T02:19:04.729Z,82.60
2019-01-23T02:21:33.531Z,82.40
2019-01-23T02:24:02.362Z,82.30
2019-01-23T02:26:31.249Z,82.20
2019-01-23T02:29:00.207Z,82.20
2019-01-23T02:31:29.025Z,82.20
2019-01-23T02:33:57.861Z,82.10
2019-01-23T02:36:26.736Z,82.10
2019-01-23T02:38:55.549Z,82.00
2019-01-23T02:41:27.709Z,82.30
2019-01-23T02:44:01.432Z,82.20
2019-01-23T02:46:30.229Z,82.00
2019-01-23T02:48:59.179Z,82.10
2019-01-23T02:51:28.027Z,82.10
2019-01-23T02:53:56.815Z,82.00
2019-01-23T02:56:25.726Z,82.00
2019-01-23T02:58:54.550Z,81.90
2019-01-23T03:01:23.338Z,81.70
2019-01-23T03:03:52.298Z,81.40
2019-01-23T03:06:21.192Z,81.80
2019-01-23T03:08:49.993Z,81.60
2019-01-23T03:11:19.003Z,81.50
2019-01-23T03:13:47.780Z,81.40
2019-01-23T03:16:16.664Z,81.40
2019-01-23T03:18:45.457Z,81.40
2019-01-23T03:21:14.370Z,81.30
2019-01-23T03:23:43.216Z,81.10
2019-01-23T03:26:12.123Z,81.20
2019-01-23T03:28:40.940Z,81.10
2019-01-23T03:31:09.779Z,81.10
2019-01-23T03:33:38.826Z,81.20
2019-01-23T03:36:07.679Z,81.20
2019-01-23T03:38:36.585Z,81.30
2019-01-23T03:41:05.474Z,81.20
2019-01-23T03:43:34.266Z,81.30
2019-01-23T03:46:03.160Z,81.30
2019-01-23T03:48:32.046Z,81.30
2019-01-23T03:51:00.903Z,81.30
2019-01-23T03:53:29.855Z,81.30
2019-01-23T03:55:58.751Z,81.30
2019-01-23T03:58:27.636Z,81.30
2019-01-23T04:00:56.658Z,81.10
2019-01-23T04:03:25.571Z,81.10
2019-01-23T04:05:54.592Z,81.00
2019-01-23T04:08:23.661Z,81.00
2019-01-23T04:10:52.543Z,81.10
2019-01-23T04:13:21.370Z,80.40
2019-01-23T04:15:50.193Z,81.00
2019-01-23T04:18:19.041Z,81.00
2019-01-23T04:20:47.780Z,80.90
2019-01-23T04:23:16.508Z,80.70
2019-01-23T04:25:48.257Z,80.70
2019-01-23T04:28:16.989Z,80.70
2019-01-23T04:30:45.737Z,80.60
2019-01-23T04:33:17.335Z,80.50
2019-01-23T04:35:46.078Z,80.50
2019-01-23T04:38:14.872Z,80.50
2019-01-23T04:40:43.646Z,80.40
2019-01-23T04:43:12.575Z,80.70
2019-01-23T04:45:41.474Z,80.60
2019-01-23T04:48:10.721Z,80.50
2019-01-23T04:50:57.464Z,80.60
2019-01-23T04:53:36.827Z,80.60
2019-01-23T04:56:05.825Z,80.70
2019-01-23T04:58:36.851Z,80.90
2019-01-23T05:01:05.724Z,80.80
2019-01-23T05:03:34.442Z,81.00
2019-01-23T05:06:04.630Z,80.90
2019-01-23T05:08:33.497Z,80.80
2019-01-23T05:11:02.303Z,80.80
2019-01-23T05:13:31.064Z,80.70
2019-01-23T05:15:59.832Z,80.70
2019-01-23T05:18:28.565Z,80.60
2019-01-23T05:20:57.329Z,80.60
2019-01-23T05:23:26.060Z,80.50
2019-01-23T05:25:54.777Z,80.60
2019-01-23T05:28:23.557Z,80.60
2019-01-23T05:30:52.302Z,80.60
2019-01-23T05:33:21.186Z,80.50
2019-01-23T05:35:49.963Z,80.50
2019-01-23T05:38:18.709Z,80.50
2019-01-23T05:40:47.448Z,80.70
2019-01-23T05:43:16.263Z,80.60
2019-01-23T05:45:45.013Z,80.50
2019-01-23T05:48:13.918Z,80.50
2019-01-23T05:50:42.698Z,80.50
2019-01-23T05:53:11.565Z,80.30
2019-01-23T05:55:40.291Z,80.00
2019-01-23T05:58:10.185Z,80.20
2019-01-23T06:00:39.189Z,80.30
2019-01-23T06:03:08.942Z,80.30
2019-01-23T06:05:37.782Z,80.30
2019-01-23T06:08:07.239Z,80.20
2019-01-23T06:10:36.006Z,80.10
2019-01-23T06:13:04.777Z,80.00
2019-01-23T06:15:33.565Z,79.80
2019-01-23T06:18:02.529Z,79.60
2019-01-23T06:20:31.349Z,79.40
2019-01-23T06:23:00.189Z,79.40
2019-01-23T06:25:29.051Z,79.20
2019-01-23T06:27:57.999Z,79.00
2019-01-23T06:30:27.359Z,78.90
2019-01-23T06:32:56.265Z,78.90
2019-01-23T06:35:25.091Z,78.80
2019-01-23T06:37:53.953Z,79.10
2019-01-23T06:40:22.729Z,78.50
2019-01-23T06:42:51.553Z,78.60
2019-01-23T06:45:20.422Z,78.70
2019-01-23T06:47:49.790Z,78.70
2019-01-23T06:50:20.164Z,78.80
2019-01-23T06:52:49.013Z,78.70
2019-01-23T06:55:18.005Z,78.70
2019-01-23T06:57:46.854Z,78.80
2019-01-23T07:00:26.002Z,78.90
2019-01-23T07:02:55.002Z,78.90
2019-01-23T07:05:24.274Z,78.70
2019-01-23T07:07:53.216Z,78.40
2019-01-23T07:10:25.925Z,78.50
2019-01-23T07:12:54.785Z,78.70
2019-01-23T07:15:23.591Z,78.60
2019-01-23T07:17:52.349Z,78.50
2019-01-23T07:20:25.897Z,78.80
2019-01-23T07:22:55.068Z,78.80
2019-01-23T07:25:24.718Z,78.60
2019-01-23T07:27:53.493Z,78.70
2019-01-23T07:30:27.882Z,78.80
2019-01-23T07:32:56.754Z,78.90
2019-01-23T07:35:25.566Z,79.50
2019-01-23T07:37:55.968Z,78.90
2019-01-23T07:40:26.063Z,78.60
2019-01-23T07:42:54.887Z,79.10
2019-01-23T07:45:24.009Z,79.50
2019-01-23T07:47:52.750Z,79.50
2019-01-23T07:50:21.641Z,79.60
2019-01-23T07:52:50.661Z,79.70
2019-01-23T07:55:19.630Z,79.60
2019-01-23T07:57:48.517Z,79.60
2019-01-23T08:00:19.141Z,79.50
2019-01-23T08:02:48.018Z,79.60
2019-01-23T08:05:19.507Z,79.50
2019-01-23T08:07:49.001Z,79.70
2019-01-23T08:10:18.302Z,79.80
2019-01-23T08:12:47.253Z,79.90
2019-01-23T08:15:31.096Z,80.00
2019-01-23T08:17:59.975Z,80.10
2019-01-23T08:20:29.046Z,80.00
2019-01-23T08:22:58.109Z,80.10
2019-01-23T08:25:26.913Z,81.00
2019-01-23T08:27:55.824Z,80.20
2019-01-23T08:30:24.933Z,80.40
2019-01-23T08:32:53.777Z,80.50
2019-01-23T08:35:37.666Z,80.50
2019-01-23T08:38:06.366Z,80.40
2019-01-23T08:40:35.155Z,80.60
2019-01-23T08:43:04.069Z,80.60
2019-01-23T08:45:32.861Z,80.70
2019-01-23T08:48:01.697Z,80.80
2019-01-23T08:50:42.074Z,80.80
2019-01-23T08:53:10.845Z,80.90
2019-01-23T08:55:39.692Z,80.60
2019-01-23T08:58:08.618Z,80.70
2019-01-23T09:00:37.410Z,80.70
2019-01-23T09:03:06.790Z,80.50
2019-01-23T09:05:35.973Z,81.30
2019-01-23T09:08:05.854Z,80.40
2019-01-23T09:10:35.270Z,80.30
2019-01-23T09:13:04.307Z,80.20
2019-01-23T09:15:33.145Z,79.70
2019-01-23T09:18:02.030Z,79.70
2019-01-23T09:20:31.942Z,79.80
2019-01-23T09:23:00.703Z,79.60
2019-01-23T09:25:29.433Z,79.60
2019-01-23T09:27:58.243Z,79.60
2019-01-23T09:30:36.985Z,79.30
2019-01-23T09:33:26.512Z,79.10
2019-01-23T09:36:30.372Z,78.90
2019-01-23T09:39:20.609Z,79.00
2019-01-23T09:42:33.517Z,79.10
2019-01-23T09:45:46.658Z,78.90
2019-01-23T09:48:38.266Z,78.80
2019-01-23T09:52:19.149Z,78.80
2019-01-23T09:54:47.889Z,78.60
2019-01-23T09:57:16.749Z,78.90
2019-01-23T09:59:45.597Z,79.10
2019-01-23T10:02:14.385Z,78.80
2019-01-23T10:04:43.294Z,79.20
2019-01-23T10:07:12.214Z,79.40
2019-01-23T10:09:40.966Z,79.60
2019-01-23T10:12:09.778Z,79.40
2019-01-23T10:14:38.802Z,79.40
2019-01-23T10:17:07.832Z,79.20
2019-01-23T10:19:36.669Z,78.90
2019-01-23T10:22:05.825Z,78.50
2019-01-23T10:24:36.078Z,78.40
2019-01-23T10:27:05.226Z,78.40
2019-01-23T10:29:33.978Z,79.10
2019-01-23T10:32:02.730Z,78.20
2019-01-23T10:34:32.434Z,77.90
2019-01-23T10:37:01.557Z,77.80
2019-01-23T10:39:31.666Z,77.90
2019-01-23T10:42:00.733Z,77.80
2019-01-23T10:44:29.578Z,77.80
2019-01-23T10:46:58.413Z,77.80
2019-01-23T10:49:27.301Z,77.30
2019-01-23T10:51:56.101Z,77.00
2019-01-23T10:54:24.902Z,76.80
2019-01-23T10:56:53.894Z,76.90
2019-01-23T10:59:25.933Z,77.00
2019-01-23T11:01:54.771Z,76.50
2019-01-23T11:04:23.570Z,76.30
2019-01-23T11:06:52.414Z,76.40
2019-01-23T11:09:21.290Z,76.00
2019-01-23T11:11:50.031Z,75.80
2019-01-23T11:14:18.865Z,75.60
2019-01-23T11:16:47.689Z,75.60
2019-01-23T11:19:16.565Z,75.70
2019-01-23T11:21:45.461Z,74.40
2019-01-23T11:24:15.472Z,75.90
2019-01-23T11:26:44.370Z,74.80
2019-01-23T11:29:13.161Z,75.20
2019-01-23T11:31:41.878Z,75.10
2019-01-23T11:34:10.706Z,74.60
2019-01-23T11:36:39.562Z,74.40
2019-01-23T11:39:09.619Z,74.50
2019-01-23T11:41:38.445Z,75.00
2019-01-23T11:44:07.177Z,74.90
2019-01-23T11:46:36.028Z,74.20
2019-01-23T11:49:07.613Z,74.30
2019-01-23T11:51:36.450Z,72.10
2019-01-23T11:54:05.645Z,74.00
2019-01-23T11:56:34.416Z,74.50
2019-01-23T11:59:07.872Z,74.60
2019-01-23T12:01:36.765Z,74.10
2019-01-23T12:04:05.690Z,74.10
2019-01-23T12:06:34.404Z,74.70
2019-01-23T12:09:03.573Z,74.80
2019-01-23T12:11:32.317Z,74.90
2019-01-23T12:14:01.167Z,75.00
2019-01-23T12:16:29.999Z,75.20
2019-01-23T12:18:58.791Z,74.00
2019-01-23T12:21:27.582Z,74.10
2019-01-23T12:24:00.560Z,74.20
2019-01-23T12:26:29.365Z,73.90
2019-01-23T12:28:58.453Z,74.30
2019-01-23T12:31:27.161Z,73.80
2019-01-23T12:33:55.945Z,73.80
2019-01-23T12:36:26.498Z,73.80
2019-01-23T12:38:55.218Z,72.70
2019-01-23T12:41:23.968Z,73.50
2019-01-23T12:43:52.765Z,73.30
2019-01-23T12:46:21.561Z,73.20
2019-01-23T12:48:50.510Z,73.60
2019-01-23T12:51:19.323Z,73.50
2019-01-23T12:53:48.154Z,73.90
2019-01-23T12:56:19.702Z,74.20
2019-01-23T12:58:48.513Z,73.90
2019-01-23T13:01:17.547Z,74.00
2019-01-23T13:03:46.590Z,73.90
2019-01-23T13:06:15.661Z,74.10
2019-01-23T13:08:44.373Z,74.10
2019-01-23T13:11:13.224Z,74.00
2019-01-23T13:13:41.956Z,73.70
2019-01-23T13:16:13.763Z,73.90
2019-01-23T13:18:42.549Z,73.90
2019-01-23T13:21:11.365Z,74.60
2019-01-23T13:23:40.250Z,74.10
2019-01-23T13:26:09.073Z,74.20
2019-01-23T13:28:37.889Z,73.90
2019-01-23T13:31:06.621Z,74.20
2019-01-23T13:33:35.338Z,74.20
2019-01-23T13:36:04.281Z,74.20
2019-01-23T13:38:33.033Z,74.40
2019-01-23T13:41:01.876Z,74.70
2019-01-23T13:43:30.587Z,74.70
2019-01-23T13:45:59.451Z,74.70
2019-01-23T13:48:28.265Z,74.40
2019-01-23T13:50:56.996Z,74.40
2019-01-23T13:53:25.746Z,74.10
2019-01-23T13:55:54.598Z,73.90
2019-01-23T13:58:23.318Z,73.70
2019-01-23T14:00:52.078Z,73.90
2019-01-23T14:03:21.150Z,73.70
2019-01-23T14:05:49.960Z,73.20
2019-01-23T14:08:18.667Z,73.00
2019-01-23T14:10:47.516Z,72.90
2019-01-23T14:13:18.661Z,73.00
2019-01-23T14:15:47.489Z,73.10
2019-01-23T14:18:19.897Z,72.60
2019-01-23T14:20:48.850Z,72.60
2019-01-23T14:23:17.884Z,72.70
2019-01-23T14:25:46.641Z,73.10
2019-01-23T14:28:15.405Z,72.80
2019-01-23T14:30:47.360Z,72.60
2019-01-23T14:33:16.091Z,72.40
2019-01-23T14:35:46.006Z,72.30
2019-01-23T14:38:14.940Z,72.10
2019-01-23T14:40:43.773Z,72.20
2019-01-23T14:43:12.774Z,72.20
2019-01-23T14:45:41.659Z,73.30
2019-01-23T14:48:10.378Z,72.70
2019-01-23T14:50:39.110Z,72.30
2019-01-23T14:53:07.928Z,72.50
2019-01-23T14:55:36.678Z,73.20
2019-01-23T14:58:05.661Z,72.50
2019-01-23T15:00:39.515Z,72.60
2019-01-23T15:03:08.372Z,72.50
2019-01-23T15:05:37.180Z,73.50
2019-01-23T15:08:06.068Z,73.20
2019-01-23T15:10:34.957Z,73.20
2019-01-23T15:13:04.585Z,73.30
2019-01-23T15:15:33.474Z,72.90
2019-01-23T15:18:02.221Z,73.40
2019-01-23T15:20:33.897Z,73.60
2019-01-23T15:23:02.705Z,73.50
2019-01-23T15:25:33.530Z,73.70
2019-01-23T15:28:02.341Z,73.70
2019-01-23T15:30:31.159Z,73.50
2019-01-23T15:32:59.965Z,73.70
2019-01-23T15:35:28.768Z,73.60
2019-01-23T15:37:57.741Z,73.60
2019-01-23T15:40:29.269Z,73.80
2019-01-23T15:42:58.089Z,73.90
2019-01-23T15:45:27.098Z,74.20
2019-01-23T15:47:58.781Z,74.40
2019-01-23T15:50:27.755Z,74.50
2019-01-23T15:52:56.613Z,74.70
2019-01-23T15:55:25.738Z,74.80
2019-01-23T15:57:54.541Z,74.70
2019-01-23T16:00:25.489Z,75.10
2019-01-23T16:02:54.706Z,75.40
2019-01-23T16:05:23.770Z,75.30
2019-01-23T16:07:52.530Z,75.30
2019-01-23T16:10:23.027Z,75.50
2019-01-23T16:12:51.834Z,75.50
2019-01-23T16:15:27.958Z,75.60
2019-01-23T16:17:57.572Z,74.50
2019-01-23T16:20:26.797Z,75.90
2019-01-23T16:22:55.845Z,76.10
2019-01-23T16:25:24.715Z,76.20
2019-01-23T16:27:53.496Z,76.30
2019-01-23T16:30:31.220Z,75.80
2019-01-23T16:33:00.022Z,76.00
2019-01-23T16:35:28.755Z,76.50
2019-01-23T16:37:57.593Z,76.50
2019-01-23T16:40:26.318Z,76.50
2019-01-23T16:42:55.171Z,76.80
2019-01-23T16:45:25.182Z,76.70
2019-01-23T16:47:53.952Z,76.70
2019-01-23T16:50:23.581Z,76.80
2019-01-23T16:52:53.927Z,77.80
2019-01-23T16:55:23.398Z,76.90
2019-01-23T16:57:52.320Z,76.90
2019-01-23T17:00:23.445Z,77.00
2019-01-23T17:02:53.292Z,77.00
2019-01-23T17:05:24.717Z,77.00
2019-01-23T17:07:53.702Z,77.00
2019-01-23T17:10:23.626Z,77.00
2019-01-23T17:12:52.490Z,77.10
2019-01-23T17:15:21.386Z,77.00
2019-01-23T17:17:50.247Z,77.70
2019-01-23T17:20:22.161Z,77.20
2019-01-23T17:22:50.918Z,77.20
2019-01-23T17:25:19.747Z,77.10
2019-01-23T17:27:48.635Z,77.20
2019-01-23T17:30:17.962Z,77.20
2019-01-23T17:32:46.877Z,77.20
2019-01-23T17:35:17.593Z,77.70
2019-01-23T17:37:46.445Z,77.30
2019-01-23T17:40:17.460Z,77.20
2019-01-23T17:42:46.384Z,77.10
2019-01-23T17:45:17.937Z,77.20
2019-01-23T17:47:46.841Z,77.30
2019-01-23T17:50:17.763Z,77.20
2019-01-23T17:52:46.583Z,77.30
2019-01-23T17:55:21.378Z,77.10
2019-01-23T17:57:50.103Z,77.10
2019-01-23T18:00:23.163Z,77.00
2019-01-23T18:02:52.760Z,77.10
2019-01-23T18:05:21.972Z,77.10
2019-01-23T18:07:55.396Z,77.10
2019-01-23T18:10:24.682Z,76.40
2019-01-23T18:12:53.493Z,77.30
2019-01-23T18:15:23.666Z,77.40
2019-01-23T18:17:52.600Z,77.50
2019-01-23T18:20:23.819Z,77.40
2019-01-23T18:22:52.685Z,77.60
2019-01-23T18:25:21.503Z,77.60
2019-01-23T18:27:50.505Z,77.60
2019-01-23T18:30:43.078Z,77.70
2019-01-23T18:33:14.821Z,77.60
2019-01-23T18:36:19.994Z,77.50
2019-01-23T18:39:21.790Z,77.20
2019-01-23T18:42:31.401Z,77.00
2019-01-23T18:45:47.453Z,76.60
2019-01-23T18:48:52.473Z,76.00
2019-01-23T18:51:39.313Z,76.20
2019-01-23T18:54:08.215Z,76.10
2019-01-23T18:56:37.750Z,75.90
2019-01-23T18:59:06.663Z,75.30
2019-01-23T19:01:35.510Z,75.00
2019-01-23T19:04:04.628Z,74.80
2019-01-23T19:06:33.365Z,74.80
2019-01-23T19:09:02.155Z,74.60
2019-01-23T19:11:30.925Z,74.50
2019-01-23T19:13:59.657Z,74.90
2019-01-23T19:16:28.665Z,74.80
2019-01-23T19:18:57.381Z,74.80
2019-01-23T19:21:26.211Z,75.10
2019-01-23T19:23:54.992Z,75.00
2019-01-23T19:26:23.717Z,75.10
2019-01-23T19:28:52.461Z,74.70
2019-01-23T19:31:21.194Z,74.80
2019-01-23T19:33:50.064Z,75.10
2019-01-23T19:36:18.955Z,74.80
2019-01-23T19:38:47.745Z,74.80
2019-01-23T19:41:20.376Z,74.90
2019-01-23T19:43:47.257Z,75.00
2019-01-23T19:46:16.205Z,74.80
2019-01-23T19:48:45.168Z,74.40
2019-01-23T19:51:14.013Z,75.00
2019-01-23T19:53:42.797Z,75.10
2019-01-23T19:56:11.860Z,75.20
2019-01-23T19:58:40.735Z,75.30
2019-01-23T20:01:09.543Z,75.90
2019-01-23T20:03:38.302Z,75.30
2019-01-23T20:06:07.143Z,75.30
2019-01-23T20:08:35.945Z,75.60
2019-01-23T20:11:04.809Z,75.70
2019-01-23T20:13:33.626Z,75.60
2019-01-23T20:16:02.447Z,75.50
2019-01-23T20:18:31.253Z,75.80
2019-01-23T20:20:59.993Z,75.80
2019-01-23T20:23:28.723Z,75.50
2019-01-23T20:25:57.482Z,75.80
2019-01-23T20:28:26.198Z,75.70
2019-01-23T20:30:54.932Z,75.50
2019-01-23T20:33:27.863Z,75.60
2019-01-23T20:35:54.144Z,75.60
2019-01-23T20:38:22.913Z,75.60
2019-01-23T20:40:51.609Z,75.60
2019-01-23T20:43:20.583Z,75.60
2019-01-23T20:45:49.438Z,75.60
2019-01-23T20:48:18.161Z,75.60
2019-01-23T20:50:46.932Z,75.60
2019-01-23T20:53:18.798Z,75.50
2019-01-23T20:55:47.626Z,75.50
2019-01-23T20:58:16.465Z,75.50
2019-01-23T21:00:45.203Z,75.50
2019-01-23T21:03:13.950Z,75.60
2019-01-23T21:05:42.769Z,75.50
2019-01-23T21:08:11.571Z,75.40
2019-01-23T21:10:40.319Z,75.20
2019-01-23T21:13:09.129Z,75.40
2019-01-23T21:15:38.789Z,75.30
2019-01-23T21:18:07.646Z,76.00
2019-01-23T21:20:38.785Z,75.30
2019-01-23T21:23:08.626Z,75.30
2019-01-23T21:25:37.440Z,75.40
2019-01-23T21:28:07.821Z,75.40
2019-01-23T21:30:36.635Z,75.10
2019-01-23T21:33:08.146Z,75.10
2019-01-23T21:35:37.054Z,75.00
2019-01-23T21:38:06.038Z,75.00
2019-01-23T21:40:34.909Z,75.00
2019-01-23T21:43:04.294Z,75.00
2019-01-23T21:45:35.313Z,75.70
2019-01-23T21:48:04.511Z,74.90
2019-01-23T21:50:35.165Z,75.00
2019-01-23T21:53:04.489Z,75.00
2019-01-23T21:55:34.626Z,74.80
2019-01-23T21:58:03.734Z,74.70
2019-01-23T22:00:44.298Z,74.70
2019-01-23T22:03:13.207Z,74.80
2019-01-23T22:05:42.130Z,74.50
2019-01-23T22:08:11.773Z,74.20
2019-01-23T22:10:40.593Z,74.00
2019-01-23T22:13:09.464Z,74.00
2019-01-23T22:15:38.290Z,73.80
2019-01-23T22:18:08.641Z,73.40
2019-01-23T22:20:37.741Z,73.50
2019-01-23T22:23:06.857Z,73.20
2019-01-23T22:25:37.054Z,73.20
2019-01-23T22:28:06.076Z,73.00
2019-01-23T22:30:35.005Z,73.10
2019-01-23T22:33:04.148Z,73.30
2019-01-23T22:35:32.953Z,73.00
2019-01-23T22:38:01.711Z,72.70
2019-01-23T22:40:30.493Z,73.00
2019-01-23T22:42:59.333Z,73.10
2019-01-23T22:45:28.137Z,73.00
2019-01-23T22:47:56.961Z,73.30
2019-01-23T22:50:27.500Z,72.60
2019-01-23T22:52:56.345Z,72.70
2019-01-23T22:55:25.161Z,72.30
2019-01-23T22:57:53.965Z,72.20
2019-01-23T23:00:47.605Z,72.10
2019-01-23T23:03:19.029Z,72.30
2019-01-23T23:05:47.973Z,72.30
2019-01-23T23:08:16.786Z,72.10
2019-01-23T23:10:45.509Z,72.00
2019-01-23T23:13:14.869Z,71.80
2019-01-23T23:15:45.021Z,71.80
2019-01-23T23:18:14.016Z,71.00
2019-01-23T23:20:42.865Z,71.80
2019-01-23T23:23:11.733Z,71.80
2019-01-23T23:25:40.533Z,71.80
2019-01-23T23:28:09.245Z,71.90
2019-01-23T23:30:38.066Z,71.90
2019-01-23T23:33:07.142Z,71.90
2019-01-23T23:35:35.913Z,71.90
2019-01-23T23:38:05.119Z,71.80
2019-01-23T23:40:33.918Z,71.70
2019-01-23T23:43:02.721Z,71.40
2019-01-23T23:45:31.466Z,72.00
2019-01-23T23:48:00.213Z,71.50
2019-01-23T23:50:28.950Z,71.50
2019-01-23T23:52:57.778Z,71.40
2019-01-23T23:55:26.574Z,71.50
2019-01-23T23:57:55.372Z,71.30
